Time;durP1;ratioP1;P1;durP2;ratioP2;P2;SDS_P1;SDS_P2;PMS_P1;PMS_P2;Temp;Humidity;BMP_temperature;BMP_pressure;BME280_temperature;BME280_humidity;BME280_pressure;Samples;Min_cycle;Max_cycle;Signal;HPM_P1;HPM_P2
2021/04/03 00:00:54;;;;;;;21.87;12.68;;;;;;;9.37;52.75;99772.48;1794725;78;26835;-71
2021/04/03 00:03:21;;;;;;;25.27;12.28;;;;;;;9.27;53.20;99769.97;1805855;77;21449;-70
2021/04/03 00:05:48;;;;;;;25.35;12.05;;;;;;;9.42;52.64;99766.27;1736446;80;21533;-70
2021/04/03 00:08:15;;;;;;;22.15;12.82;;;;;;;9.25;53.55;99771.45;1787393;77;26135;-69
2021/04/03 00:10:47;;;;;;;21.10;12.43;;;;;;;9.42;52.94;99770.22;1788976;77;21175;-70
2021/04/03 00:13:14;;;;;;;22.02;12.18;;;;;;;9.44;53.02;99772.20;1795112;77;22459;-71
2021/04/03 00:15:40;;;;;;;21.07;12.27;;;;;;;9.50;53.15;99768.92;1802262;77;21612;-69
2021/04/03 00:18:06;;;;;;;21.80;11.93;;;;;;;9.48;53.01;99768.27;1799188;77;21206;-70
2021/04/03 00:20:34;;;;;;;23.87;13.25;;;;;;;9.32;53.93;99772.48;1789219;77;21713;-70
2021/04/03 00:23:00;;;;;;;23.95;12.68;;;;;;;9.25;54.45;99776.72;1790117;77;21217;-69
2021/04/03 00:25:26;;;;;;;21.40;11.80;;;;;;;9.40;54.33;99776.12;1799832;77;27933;-69
2021/04/03 00:27:51;;;;;;;19.73;11.40;;;;;;;9.48;54.16;99781.45;1800788;77;21955;-70
2021/04/03 00:30:18;;;;;;;23.15;11.18;;;;;;;9.34;54.43;99778.41;1797909;77;27131;-69
2021/04/03 00:32:49;;;;;;;19.98;11.22;;;;;;;9.26;54.75;99778.84;1797564;77;21191;-69
2021/04/03 00:35:21;;;;;;;20.00;10.93;;;;;;;9.25;54.77;99780.67;1797042;77;21184;-69
2021/04/03 00:37:47;;;;;;;23.05;10.78;;;;;;;9.19;54.73;99779.98;1802119;77;21183;-69
2021/04/03 00:40:18;;;;;;;21.55;10.25;;;;;;;9.11;54.84;99780.75;1796024;77;21253;-70
2021/04/03 00:42:44;;;;;;;18.50;9.85;;;;;;;8.89;55.75;99782.11;1795886;77;21211;-70
2021/04/03 00:45:11;;;;;;;16.32;9.33;;;;;;;8.88;55.67;99779.13;1793427;77;25349;-70
2021/04/03 00:47:37;;;;;;;;;;;;;;;9.00;55.19;99777.58;1803071;77;21199;-70
2021/04/03 00:50:04;;;;;;;17.17;9.70;;;;;;;8.88;55.73;99777.81;1800545;77;20691;-70
2021/04/03 00:52:30;;;;;;;18.85;9.70;;;;;;;8.90;55.52;99771.07;1798803;77;21724;-70
2021/04/03 00:54:56;;;;;;;15.50;8.83;;;;;;;8.88;55.66;99767.78;1790810;77;27602;-70
2021/04/03 00:57:21;;;;;;;16.10;8.85;;;;;;;8.96;55.67;99766.50;1795591;77;25334;-70
2021/04/03 00:59:47;;;;;;;16.73;9.08;;;;;;;8.91;55.53;99769.60;1794897;77;29071;-70
2021/04/03 01:02:13;;;;;;;17.98;9.13;;;;;;;8.72;56.33;99771.13;1800186;77;26658;-70
2021/04/03 01:04:39;;;;;;;17.27;9.00;;;;;;;8.66;56.61;99768.61;1799060;77;21852;-70
2021/04/03 01:07:05;;;;;;;16.95;8.90;;;;;;;8.65;56.54;99763.50;1790784;77;26994;-69
2021/04/03 01:09:39;;;;;;;16.57;8.68;;;;;;;8.54;56.76;99764.56;1795871;77;21602;-69
2021/04/03 01:12:30;;;;;;;16.87;8.63;;;;;;;8.61;56.63;99762.48;1791065;77;21162;-69
2021/04/03 01:15:19;;;;;;;15.13;8.03;;;;;;;8.55;57.01;99753.89;1789113;77;21295;-69
2021/04/03 01:17:56;;;;;;;18.95;9.00;;;;;;;8.60;56.68;99752.93;1794425;77;21196;-69
2021/04/03 01:20:37;;;;;;;17.98;8.45;;;;;;;8.48;57.42;99752.83;1776926;77;21156;-70
2021/04/03 01:23:37;;;;;;;14.30;8.18;;;;;;;8.49;57.00;99753.18;1749853;77;21111;-69
2021/04/03 01:26:42;;;;;;;17.35;8.38;;;;;;;8.43;57.50;99760.34;1793929;77;21218;-69
2021/04/03 01:29:50;;;;;;;15.23;8.50;;;;;;;8.34;58.05;99755.98;1794152;77;21128;-69
2021/04/03 01:32:19;;;;;;;14.58;8.28;;;;;;;8.47;57.26;99760.88;1791612;77;21326;-70
2021/04/03 01:34:46;;;;;;;14.43;7.72;;;;;;;8.52;57.04;99760.77;1763401;77;47758;-70
2021/04/03 01:37:14;;;;;;;17.42;8.53;;;;;;;8.27;58.16;99753.14;1795567;77;24579;-69
2021/04/03 01:39:43;;;;;;;17.27;8.80;;;;;;;8.22;58.72;99760.16;1785778;77;21620;-70
2021/04/03 01:42:13;;;;;;;14.23;8.15;;;;;;;8.26;58.73;99752.32;1796928;77;21120;-70
2021/04/03 01:44:50;;;;;;;16.10;8.33;;;;;;;8.23;58.94;99751.31;1789013;77;22555;-70
2021/04/03 01:47:22;;;;;;;14.33;7.95;;;;;;;8.11;59.38;99753.83;1800417;77;21180;-70
2021/04/03 01:49:50;;;;;;;17.75;8.88;;;;;;;8.15;59.18;99756.47;1797682;77;21155;-70
2021/04/03 01:52:28;;;;;;;14.10;8.23;;;;;;;8.15;59.11;99756.47;1790444;77;21211;-71
2021/04/03 01:55:00;;;;;;;16.87;8.63;;;;;;;8.12;59.22;99756.77;1760802;77;21219;-69
2021/04/03 01:57:29;;;;;;;16.75;8.50;;;;;;;8.14;59.17;99752.20;1807773;77;21179;-70
2021/04/03 01:59:55;;;;;;;17.82;9.15;;;;;;;8.04;59.42;99755.39;1796304;77;21202;-71
2021/04/03 02:02:21;;;;;;;15.95;8.58;;;;;;;8.02;59.57;99752.91;1781723;77;24395;-70
2021/04/03 02:04:47;;;;;;;15.18;8.53;;;;;;;8.26;58.69;99757.58;1792373;78;28916;-70
2021/04/03 02:07:17;;;;;;;14.73;8.38;;;;;;;8.19;59.04;99761.78;1764850;79;26804;-70
2021/04/03 02:09:49;;;;;;;16.65;8.83;;;;;;;8.27;58.66;99763.66;1787605;78;21678;-70
2021/04/03 02:12:15;;;;;;;16.70;8.93;;;;;;;8.34;58.45;99756.80;1795995;78;21597;-70
2021/04/03 02:14:41;;;;;;;17.47;8.80;;;;;;;8.30;58.61;99750.20;1792775;78;24788;-70
2021/04/03 02:17:06;;;;;;;19.15;9.35;;;;;;;8.43;58.07;99754.61;1794245;78;28459;-70
2021/04/03 02:19:34;;;;;;;22.05;9.25;;;;;;;8.35;58.54;99756.33;1790107;78;26841;-71
2021/04/03 02:22:01;;;;;;;17.23;8.50;;;;;;;8.42;58.20;99758.67;1796187;78;22124;-70
2021/04/03 02:24:27;;;;;;;15.83;8.90;;;;;;;8.51;57.98;99756.48;1796775;78;21234;-71
2021/04/03 02:26:53;;;;;;;18.20;9.77;;;;;;;8.52;57.95;99764.72;1789688;78;24043;-71
2021/04/03 02:29:19;;;;;;;17.17;9.30;;;;;;;8.38;58.61;99754.71;1791592;78;28635;-70
2021/04/03 02:31:45;;;;;;;18.25;9.23;;;;;;;8.43;58.28;99760.34;1765106;79;27339;-71
2021/04/03 02:34:11;;;;;;;19.15;9.15;;;;;;;8.35;58.68;99757.14;1785815;78;22519;-72
2021/04/03 02:36:37;;;;;;;15.40;8.68;;;;;;;8.44;58.40;99764.66;1773844;79;26952;-71
2021/04/03 02:39:03;;;;;;;15.88;9.03;;;;;;;8.53;57.99;99760.27;1738300;81;25464;-71
2021/04/03 02:42:03;;;;;;;19.15;9.00;;;;;;;8.56;57.91;99762.59;1738646;78;21223;-71
2021/04/03 02:44:34;;;;;;;18.45;9.10;;;;;;;8.58;57.91;99762.80;1785409;78;21215;-69
2021/04/03 02:47:17;;;;;;;14.20;8.40;;;;;;;8.62;57.78;99765.47;1795466;78;21904;-70
2021/04/03 02:49:54;;;;;;;16.97;8.18;;;;;;;8.66;57.65;99758.08;1793907;78;21219;-70
2021/04/03 02:52:19;;;;;;;15.63;8.45;;;;;;;8.47;58.46;99755.62;1797656;78;21269;-70
2021/04/03 02:54:45;;;;;;;15.38;8.45;;;;;;;8.23;59.48;99756.57;1791029;78;29050;-70
2021/04/03 02:57:12;;;;;;;14.90;8.35;;;;;;;8.24;59.70;99755.57;1748040;78;26703;-70
2021/04/03 02:59:40;;;;;;;15.90;8.37;;;;;;;8.43;59.31;99761.19;1801890;77;21678;-70
2021/04/03 03:02:06;;;;;;;14.75;8.10;;;;;;;8.41;59.32;99762.30;1797208;78;21175;-70
2021/04/03 03:04:32;;;;;;;15.25;7.58;;;;;;;8.48;58.94;99763.36;1801539;77;25301;-70
2021/04/03 03:06:58;;;;;;;20.05;8.08;;;;;;;8.52;58.62;99759.45;1808994;77;28400;-70
2021/04/03 03:09:24;;;;;;;13.55;7.17;;;;;;;8.51;58.55;99760.42;1732166;80;21213;-70
2021/04/03 03:11:54;;;;;;;12.45;7.20;;;;;;;8.40;59.00;99760.64;1733272;80;22038;-70
2021/04/03 03:14:22;;;;;;;10.75;6.42;;;;;;;8.31;59.37;99757.59;1735686;81;21243;-70
2021/04/03 03:16:48;;;;;;;;;;;;;;;8.21;59.74;99769.02;1731004;80;21226;-70
2021/04/03 03:19:15;;;;;;;10.82;6.25;;;;;;;8.15;59.97;99772.25;1738086;80;20475;-70
2021/04/03 03:21:41;;;;;;;14.83;6.67;;;;;;;8.02;60.21;99773.94;1747513;80;21641;-70
2021/04/03 03:24:10;;;;;;;10.63;5.75;;;;;;;8.09;59.86;99775.02;1795648;77;22464;-70
2021/04/03 03:26:37;;;;;;;10.15;5.83;;;;;;;8.05;59.79;99780.72;1789715;77;21584;-70
2021/04/03 03:29:05;;;;;;;9.98;5.10;;;;;;;8.14;59.33;99779.83;1791517;77;21226;-69
2021/04/03 03:31:31;;;;;;;9.20;5.12;;;;;;;8.12;59.46;99780.94;1800773;77;26309;-70
2021/04/03 03:33:58;;;;;;;9.55;4.87;;;;;;;8.15;58.99;99778.83;1795839;77;21190;-70
2021/04/03 03:36:25;;;;;;;9.77;4.83;;;;;;;8.09;58.93;99779.42;1796467;77;21143;-70
2021/04/03 03:38:51;;;;;;;10.35;4.90;;;;;;;8.12;58.75;99784.39;1795560;77;21898;-70
2021/04/03 03:41:17;;;;;;;9.63;4.70;;;;;;;8.16;58.49;99781.81;1765620;77;23699;-70
2021/04/03 03:43:43;;;;;;;6.35;4.15;;;;;;;8.13;58.48;99785.23;1744722;77;28415;-70
2021/04/03 03:46:08;;;;;;;9.58;4.55;;;;;;;8.16;58.30;99777.86;1799778;77;26747;-70
2021/04/03 03:48:34;;;;;;;7.03;4.25;;;;;;;7.93;58.81;99781.91;1791786;77;21671;-69
2021/04/03 03:51:00;;;;;;;7.65;4.05;;;;;;;8.06;58.66;99781.04;1799353;77;26699;-70
2021/04/03 03:53:26;;;;;;;7.90;3.92;;;;;;;7.99;58.70;99783.94;1796025;77;25390;-69
2021/04/03 03:55:54;;;;;;;8.68;4.40;;;;;;;8.02;58.50;99788.91;1796522;77;28467;-69
2021/04/03 03:58:20;;;;;;;8.00;4.00;;;;;;;8.08;58.47;99789.13;1799323;77;21675;-70
2021/04/03 04:00:46;;;;;;;5.70;3.60;;;;;;;8.08;58.37;99784.36;1788943;77;21658;-70
2021/04/03 04:03:12;;;;;;;8.25;3.55;;;;;;;7.94;58.85;99791.42;1785695;77;26979;-70
2021/04/03 04:05:38;;;;;;;6.58;3.80;;;;;;;7.66;59.64;99796.69;1790448;77;23737;-70
2021/04/03 04:08:04;;;;;;;6.35;3.45;;;;;;;7.77;59.69;99806.19;1797578;77;28329;-70
2021/04/03 04:10:30;;;;;;;6.65;3.65;;;;;;;7.78;60.41;99801.28;1794322;77;21207;-70
2021/04/03 04:12:55;;;;;;;5.30;3.50;;;;;;;7.86;60.52;99799.58;1799291;77;21836;-70
2021/04/03 04:15:21;;;;;;;6.78;3.37;;;;;;;8.01;60.37;99804.33;1796509;77;26426;-70
2021/04/03 04:17:47;;;;;;;7.60;4.00;;;;;;;7.86;61.02;99815.82;1797140;77;25747;-70
2021/04/03 04:20:14;;;;;;;8.15;3.90;;;;;;;7.89;61.01;99805.86;1796966;77;28300;-70
2021/04/03 04:22:40;;;;;;;6.42;3.60;;;;;;;7.86;61.19;99803.52;1804703;77;21613;-71
2021/04/03 04:25:08;;;;;;;6.55;4.00;;;;;;;7.85;61.37;99801.86;1797228;77;22017;-71
2021/04/03 04:27:33;;;;;;;;;;;;;;;7.68;62.52;99821.05;1794599;77;21150;-70
2021/04/03 04:30:08;;;;;;;6.00;3.77;;;;;;;7.67;62.84;99818.89;1803070;77;20285;-70
2021/04/03 04:32:27;;;;;;;7.60;4.33;;;;;;;7.62;63.83;99821.62;1796919;77;21202;-69
2021/04/03 04:34:52;;;;;;;6.87;3.92;;;;;;;7.50;64.55;99821.83;1790748;77;27054;-70
2021/04/03 04:37:18;;;;;;;6.03;3.67;;;;;;;7.30;66.01;99815.81;1791280;77;22429;-70
2021/04/03 04:39:44;;;;;;;7.37;4.33;;;;;;;7.15;67.27;99820.67;1797546;77;25871;-70
2021/04/03 04:42:10;;;;;;;7.67;4.50;;;;;;;7.02;67.49;99825.39;1791432;77;24776;-70
2021/04/03 04:44:36;;;;;;;7.97;4.62;;;;;;;7.00;68.20;99832.59;1790375;77;28384;-70
2021/04/03 04:47:02;;;;;;;9.78;4.80;;;;;;;7.07;67.52;99817.94;1802424;77;27317;-70
2021/04/03 04:49:28;;;;;;;7.70;4.83;;;;;;;7.15;67.85;99822.48;1793879;77;21209;-70
2021/04/03 04:51:54;;;;;;;8.17;5.27;;;;;;;7.19;67.55;99814.18;1787844;77;25519;-70
2021/04/03 04:54:20;;;;;;;11.53;5.30;;;;;;;7.10;68.48;99818.97;1797143;77;21162;-70
2021/04/03 04:56:46;;;;;;;9.98;5.75;;;;;;;7.08;68.88;99823.52;1794294;77;27092;-71
2021/04/03 04:59:11;;;;;;;9.05;5.62;;;;;;;7.06;69.41;99825.47;1769756;79;26750;-70
2021/04/03 05:01:37;;;;;;;10.23;5.90;;;;;;;7.08;69.21;99821.38;1740880;80;22746;-71
2021/04/03 05:04:03;;;;;;;9.10;5.80;;;;;;;6.97;70.21;99823.69;1744537;80;23873;-71
2021/04/03 05:06:29;;;;;;;13.93;5.80;;;;;;;6.99;70.12;99825.67;1736893;80;21086;-71
2021/04/03 05:08:55;;;;;;;9.43;5.65;;;;;;;7.09;69.55;99823.05;1742468;80;28825;-70
2021/04/03 05:11:21;;;;;;;9.98;5.28;;;;;;;7.16;69.51;99827.59;1728966;80;21751;-70
2021/04/03 05:13:47;;;;;;;12.50;5.90;;;;;;;7.07;70.48;99838.95;1735138;80;22206;-70
2021/04/03 05:16:12;;;;;;;10.67;5.70;;;;;;;6.93;70.61;99841.52;1736617;80;26425;-70
2021/04/03 05:18:39;;;;;;;10.63;5.67;;;;;;;7.01;70.52;99836.88;1741412;80;21849;-70
2021/04/03 05:21:05;;;;;;;9.43;5.80;;;;;;;6.95;70.94;99843.52;1740810;80;21633;-70
2021/04/03 05:23:31;;;;;;;7.70;5.58;;;;;;;6.89;70.93;99839.31;1732627;80;21574;-70
2021/04/03 05:25:56;;;;;;;8.60;5.67;;;;;;;6.97;70.80;99846.00;1747651;80;21416;-70
2021/04/03 05:28:22;;;;;;;10.17;5.43;;;;;;;6.96;72.09;99845.18;1741118;80;25697;-70
2021/04/03 05:30:48;;;;;;;9.30;5.70;;;;;;;7.07;71.08;99846.82;1743320;80;22845;-70
2021/04/03 05:33:14;;;;;;;11.33;5.87;;;;;;;7.00;71.47;99853.09;1746220;79;21191;-69
2021/04/03 05:35:39;;;;;;;10.03;6.00;;;;;;;6.98;72.02;99846.35;1745619;79;27250;-70
2021/04/03 05:38:05;;;;;;;7.67;4.90;;;;;;;7.12;71.47;99852.47;1761701;79;23138;-69
2021/04/03 05:40:31;;;;;;;7.80;4.85;;;;;;;7.23;70.71;99851.98;1750987;79;26220;-70
2021/04/03 05:42:58;;;;;;;7.85;5.12;;;;;;;7.28;70.24;99852.37;1752516;79;21602;-70
2021/04/03 05:45:24;;;;;;;8.18;5.00;;;;;;;7.36;70.04;99857.27;1745852;79;21203;-70
2021/04/03 05:47:49;;;;;;;7.15;4.72;;;;;;;7.31;70.25;99853.39;1753731;79;26184;-69
2021/04/03 05:50:15;;;;;;;7.10;4.93;;;;;;;7.25;70.57;99853.97;1751769;79;21098;-69
2021/04/03 05:52:42;;;;;;;8.40;4.60;;;;;;;7.17;71.07;99860.74;1754492;79;26903;-69
2021/04/03 05:55:09;;;;;;;8.70;4.47;;;;;;;7.11;71.76;99854.73;1755212;79;21485;-69
2021/04/03 05:57:36;;;;;;;7.03;4.22;;;;;;;7.04;72.81;99862.86;1745497;79;21169;-69
2021/04/03 06:00:05;;;;;;;7.35;4.08;;;;;;;6.90;73.65;99860.64;1759906;79;21604;-70
2021/04/03 06:02:35;;;;;;;7.08;4.70;;;;;;;6.76;74.37;99864.05;1744372;79;22205;-69
2021/04/03 06:04:59;;;;;;;6.10;4.22;;;;;;;6.77;74.62;99863.06;1747324;79;21200;-70
2021/04/03 06:07:25;;;;;;;6.97;4.77;;;;;;;6.66;73.83;99865.83;1745666;81;21868;-70
2021/04/03 06:09:51;;;;;;;9.93;5.03;;;;;;;6.59;74.45;99866.06;1743856;81;28843;-70
2021/04/03 06:12:22;;;;;;;6.42;4.80;;;;;;;6.56;75.07;99866.33;1750989;81;26728;-70
2021/04/03 06:14:48;;;;;;;12.07;5.53;;;;;;;6.78;74.00;99868.66;1738238;81;22329;-70
2021/04/03 06:17:14;;;;;;;9.77;5.60;;;;;;;6.75;73.98;99869.44;1749765;81;25920;-69
2021/04/03 06:19:48;;;;;;;10.08;6.15;;;;;;;6.83;72.88;99862.51;1746901;81;21208;-71
2021/04/03 06:22:13;;;;;;;8.35;5.80;;;;;;;6.94;73.16;99866.78;1745551;81;22613;-70
2021/04/03 06:24:39;;;;;;;11.88;6.55;;;;;;;6.92;73.25;99869.22;1747750;81;26386;-70
2021/04/03 06:27:18;;;;;;;9.33;6.05;;;;;;;6.79;74.07;99872.95;1752306;81;21204;-72
2021/04/03 06:29:50;;;;;;;10.25;6.17;;;;;;;6.87;73.42;99872.73;1722178;81;21205;-70
2021/04/03 06:32:24;;;;;;;10.35;6.12;;;;;;;6.71;74.02;99874.14;1750625;81;21183;-71
2021/04/03 06:34:53;;;;;;;10.63;6.28;;;;;;;6.82;73.24;99877.93;1748896;81;21223;-69
2021/04/03 06:37:34;;;;;;;13.68;7.00;;;;;;;6.89;73.45;99875.57;1751997;81;21634;-70
2021/04/03 06:40:11;;;;;;;10.30;6.47;;;;;;;6.89;73.16;99873.44;1750629;81;21237;-70
2021/04/03 06:42:46;;;;;;;11.63;6.45;;;;;;;6.89;72.71;99870.32;1748131;81;21214;-69
2021/04/03 06:45:32;;;;;;;8.88;5.95;;;;;;;6.83;73.07;99874.31;1751162;81;21208;-70
2021/04/03 06:48:05;;;;;;;13.07;7.23;;;;;;;6.89;73.17;99878.69;1744817;81;21246;-70
2021/04/03 06:50:38;;;;;;;9.95;6.35;;;;;;;7.13;72.65;99888.27;1749191;81;21501;-71
2021/04/03 06:53:09;;;;;;;11.73;6.58;;;;;;;7.34;72.01;99889.89;1754174;81;22017;-71
2021/04/03 06:55:35;;;;;;;11.25;6.62;;;;;;;7.29;72.19;99892.12;1746798;81;21224;-72
2021/04/03 06:58:03;;;;;;;14.03;6.85;;;;;;;7.36;71.58;99889.25;1753938;81;21165;-71
2021/04/03 07:00:30;;;;;;;11.85;6.60;;;;;;;7.21;71.98;99890.20;1746276;81;21225;-70
2021/04/03 07:03:12;;;;;;;9.78;6.22;;;;;;;7.18;71.86;99889.98;1750459;81;21149;-70
2021/04/03 07:05:38;;;;;;;9.73;6.05;;;;;;;7.30;71.30;99900.33;1742199;81;22513;-71
2021/04/03 07:08:06;;;;;;;10.55;5.90;;;;;;;7.39;70.29;99899.97;1746302;81;26130;-71
2021/04/03 07:10:32;;;;;;;;;;;;;;;7.17;71.43;99900.13;1727046;81;21626;-71
2021/04/03 07:12:58;;;;;;;11.43;5.60;;;;;;;7.21;71.00;99899.85;1750965;81;20565;-72
2021/04/03 07:15:25;;;;;;;10.35;6.17;;;;;;;7.22;70.71;99904.14;1748947;81;21118;-70
2021/04/03 07:17:51;;;;;;;13.08;6.53;;;;;;;7.07;71.46;99898.48;1744893;81;21783;-71
2021/04/03 07:20:19;;;;;;;10.88;6.33;;;;;;;7.09;71.91;99911.83;1749259;81;21443;-70
2021/04/03 07:22:49;;;;;;;14.53;6.92;;;;;;;7.29;71.54;99908.70;1750216;81;21213;-71
2021/04/03 07:25:15;;;;;;;10.60;6.62;;;;;;;7.14;72.12;99905.66;1745779;81;21708;-70
2021/04/03 07:27:44;;;;;;;9.78;6.28;;;;;;;7.28;71.18;99914.09;1743796;81;26834;-70
2021/04/03 07:30:11;;;;;;;10.60;6.35;;;;;;;7.34;71.15;99917.47;1748108;81;22037;-70
2021/04/03 07:32:42;;;;;;;12.88;6.83;;;;;;;7.41;70.39;99922.52;1747068;81;27534;-69
2021/04/03 07:35:20;;;;;;;9.65;6.00;;;;;;;7.43;70.77;99928.44;1748493;81;21184;-70
2021/04/03 07:37:46;;;;;;;13.53;6.60;;;;;;;7.47;70.50;99931.61;1743930;81;21225;-68
2021/04/03 07:40:25;;;;;;;9.60;6.28;;;;;;;7.38;70.28;99933.30;1750436;81;21253;-70
2021/04/03 07:42:51;;;;;;;10.18;6.12;;;;;;;7.28;69.74;99942.98;1713761;81;21245;-69
2021/04/03 07:45:40;;;;;;;12.58;6.37;;;;;;;7.35;69.14;99946.72;1743933;81;21605;-69
2021/04/03 07:48:03;;;;;;;12.37;5.90;;;;;;;7.36;68.51;99949.20;1744310;81;21562;-69
2021/04/03 07:50:47;;;;;;;10.50;6.03;;;;;;;7.23;68.04;99955.71;1748711;81;21193;-69
2021/04/03 07:53:13;;;;;;;9.85;6.15;;;;;;;7.38;68.35;99963.52;1748538;81;21237;-70
2021/04/03 07:55:42;;;;;;;9.97;5.87;;;;;;;7.47;67.80;99969.23;1725278;81;22739;-71
2021/04/03 07:58:27;;;;;;;10.15;5.83;;;;;;;7.48;67.68;99965.63;1747314;81;21226;-70
2021/04/03 08:00:54;;;;;;;9.08;5.83;;;;;;;7.48;68.11;99974.81;1748351;81;21171;-70
2021/04/03 08:03:24;;;;;;;10.07;6.03;;;;;;;7.45;68.36;99972.47;1752587;81;21513;-70
2021/04/03 08:05:52;;;;;;;11.80;6.37;;;;;;;7.54;67.72;99975.57;1751312;80;21255;-69
2021/04/03 08:08:18;;;;;;;11.48;6.05;;;;;;;7.74;66.86;99982.11;1753076;80;21340;-70
2021/04/03 08:10:45;;;;;;;10.03;6.05;;;;;;;7.51;67.05;99985.55;1751651;80;21164;-70
2021/04/03 08:13:11;;;;;;;10.58;5.47;;;;;;;7.52;66.38;99995.91;1747942;80;21618;-70
2021/04/03 08:15:37;;;;;;;10.23;5.20;;;;;;;7.73;65.08;99996.22;1744972;80;21209;-70
2021/04/03 08:18:03;;;;;;;8.75;4.97;;;;;;;7.69;64.69;99994.83;1740112;80;26758;-70
2021/04/03 08:20:29;;;;;;;8.58;4.80;;;;;;;7.65;64.41;99997.42;1709573;80;22355;-70
2021/04/03 08:23:04;;;;;;;7.97;4.67;;;;;;;7.45;64.18;100002.69;1749408;79;24558;-70
2021/04/03 08:25:30;;;;;;;8.50;5.10;;;;;;;7.58;64.02;100005.52;1747170;80;21163;-70
2021/04/03 08:27:57;;;;;;;9.88;5.00;;;;;;;7.55;64.09;100014.03;1718385;80;28690;-70
2021/04/03 08:30:31;;;;;;;11.48;5.15;;;;;;;7.64;64.80;100012.83;1752743;80;21546;-70
2021/04/03 08:33:12;;;;;;;8.28;5.17;;;;;;;7.79;63.64;100006.66;1749156;80;21638;-70
2021/04/03 08:35:41;;;;;;;7.90;4.65;;;;;;;7.72;64.15;100019.52;1756636;79;21167;-71
2021/04/03 08:38:11;;;;;;;7.72;4.78;;;;;;;7.90;62.35;100016.52;1735202;80;21227;-70
2021/04/03 08:40:37;;;;;;;7.97;4.35;;;;;;;7.87;61.81;100026.00;1745458;80;21195;-72
2021/04/03 08:43:03;;;;;;;7.87;4.70;;;;;;;7.87;60.36;100023.37;1753943;80;27131;-70
2021/04/03 08:45:37;;;;;;;9.08;4.85;;;;;;;8.06;61.32;100020.34;1745265;80;21608;-70
2021/04/03 08:48:05;;;;;;;8.90;5.22;;;;;;;8.08;60.80;100027.63;1746045;80;21220;-69
2021/04/03 08:50:31;;;;;;;8.33;4.85;;;;;;;8.10;60.41;100024.36;1743693;80;21163;-68
2021/04/03 08:53:02;;;;;;;9.65;5.35;;;;;;;8.22;60.08;100027.66;1697235;80;28392;-69
2021/04/03 08:55:28;;;;;;;10.13;4.72;;;;;;;8.19;58.94;100032.70;1747053;80;21183;-69
2021/04/03 08:57:56;;;;;;;7.17;4.50;;;;;;;8.23;59.66;100026.20;1744485;80;21884;-69
2021/04/03 09:00:23;;;;;;;7.55;4.40;;;;;;;8.31;59.05;100028.58;1745662;80;21665;-70
2021/04/03 09:02:49;;;;;;;8.10;4.70;;;;;;;8.57;58.78;100032.22;1742012;80;21637;-69
2021/04/03 09:05:16;;;;;;;7.40;4.40;;;;;;;8.52;58.95;100029.20;1712180;81;28367;-70
2021/04/03 09:07:42;;;;;;;10.08;4.62;;;;;;;8.60;58.66;100036.38;1742639;81;21604;-70
2021/04/03 09:10:14;;;;;;;7.87;4.50;;;;;;;8.45;58.44;100042.59;1731609;81;23440;-69
2021/04/03 09:12:40;;;;;;;7.05;4.10;;;;;;;8.49;58.69;100049.23;1743139;81;21194;-69
2021/04/03 09:15:07;;;;;;;7.47;4.55;;;;;;;8.54;57.79;100041.73;1747053;81;24984;-71
2021/04/03 09:17:33;;;;;;;;;;;;;;;8.71;57.43;100039.30;1735369;81;21237;-70
2021/04/03 09:20:11;;;;;;;7.87;4.25;;;;;;;8.47;58.33;100048.56;1732436;81;27365;-70
2021/04/03 09:22:39;;;;;;;8.58;4.35;;;;;;;8.47;58.58;100044.62;1734304;81;21435;-69
2021/04/03 09:25:10;;;;;;;7.42;3.87;;;;;;;8.52;58.53;100048.95;1742498;81;21195;-68
2021/04/03 09:27:36;;;;;;;7.72;4.00;;;;;;;8.71;58.01;100055.09;1742637;81;21153;-70
2021/04/03 09:30:07;;;;;;;8.43;4.10;;;;;;;8.95;57.05;100052.75;1741410;81;21146;-67
2021/04/03 09:32:44;;;;;;;7.70;4.15;;;;;;;9.18;56.43;100054.13;1741802;81;21644;-67
2021/04/03 09:35:12;;;;;;;6.83;3.75;;;;;;;9.42;55.26;100056.17;1717581;82;21240;-68
2021/04/03 09:37:38;;;;;;;7.53;3.60;;;;;;;9.35;55.35;100055.93;1767678;80;21269;-69
2021/04/03 09:40:06;;;;;;;6.53;3.70;;;;;;;9.52;54.82;100054.27;1765679;80;25313;-69
2021/04/03 09:42:32;;;;;;;7.00;3.70;;;;;;;9.56;55.25;100058.27;1769687;80;21111;-66
2021/04/03 09:44:59;;;;;;;5.85;3.35;;;;;;;9.58;54.81;100048.39;1769338;80;27178;-69
2021/04/03 09:47:28;;;;;;;5.33;3.40;;;;;;;9.77;54.48;100046.56;1769286;79;22790;-69
2021/04/03 09:49:53;;;;;;;4.72;3.10;;;;;;;9.78;53.66;100049.55;1747770;80;21685;-70
2021/04/03 09:52:19;;;;;;;6.00;3.02;;;;;;;9.31;53.27;100063.31;1729886;82;26181;-69
2021/04/03 09:54:46;;;;;;;5.95;3.20;;;;;;;9.18;53.14;100068.11;1774365;79;28405;-69
2021/04/03 09:57:12;;;;;;;6.35;3.35;;;;;;;9.11;53.50;100057.85;1774054;79;21191;-68
2021/04/03 09:59:39;;;;;;;4.72;2.80;;;;;;;9.13;53.24;100050.62;1774291;79;21226;-71
2021/04/03 10:02:05;;;;;;;6.03;3.27;;;;;;;9.20;53.52;100056.95;1774749;80;26026;-69
2021/04/03 10:04:31;;;;;;;5.50;2.90;;;;;;;8.98;53.60;100066.94;1762931;80;25657;-68
2021/04/03 10:06:57;;;;;;;4.55;3.08;;;;;;;8.94;52.86;100065.56;1772331;78;21240;-69
2021/04/03 10:09:23;;;;;;;5.37;2.90;;;;;;;9.02;53.56;100058.73;1763445;80;21197;-69
2021/04/03 10:11:49;;;;;;;5.90;2.90;;;;;;;9.27;53.34;100060.63;1765885;80;22399;-69
2021/04/03 10:14:15;;;;;;;4.72;2.92;;;;;;;9.04;53.20;100055.45;1752556;80;27373;-68
2021/04/03 10:16:41;;;;;;;5.72;2.62;;;;;;;9.18;53.25;100054.94;1770762;79;25262;-69
2021/04/03 10:19:08;;;;;;;6.62;2.40;;;;;;;9.25;52.92;100060.46;1774349;80;21569;-71
2021/04/03 10:21:34;;;;;;;4.37;2.33;;;;;;;9.42;51.71;100054.86;1770378;80;21190;-69
2021/04/03 10:24:00;;;;;;;5.17;2.40;;;;;;;9.43;52.03;100053.86;1770039;79;21953;-69
2021/04/03 10:26:26;;;;;;;3.65;2.00;;;;;;;9.48;51.67;100064.80;1748975;81;27099;-70
2021/04/03 10:28:51;;;;;;;3.02;2.00;;;;;;;9.27;49.69;100065.90;1720200;82;25756;-70
2021/04/03 10:31:19;;;;;;;3.27;1.82;;;;;;;9.32;48.53;100062.34;1717608;82;28426;-68
2021/04/03 10:33:44;;;;;;;3.37;1.85;;;;;;;9.47;49.61;100049.45;1780211;80;21527;-69
2021/04/03 10:36:10;;;;;;;10.78;2.00;;;;;;;9.56;50.04;100053.00;1773158;79;21997;-69
2021/04/03 10:38:37;;;;;;;3.55;1.70;;;;;;;9.58;51.54;100058.94;1767061;80;27083;-68
2021/04/03 10:41:03;;;;;;;4.30;2.10;;;;;;;9.64;52.64;100058.33;1763539;79;21205;-71
2021/04/03 10:43:29;;;;;;;3.80;1.90;;;;;;;9.51;53.65;100061.36;1771890;79;28393;-69
2021/04/03 10:45:54;;;;;;;4.08;2.05;;;;;;;9.63;54.03;100058.01;1736294;79;24221;-69
2021/04/03 10:48:20;;;;;;;5.03;1.98;;;;;;;9.77;54.56;100055.79;1772946;80;21809;-68
2021/04/03 10:50:46;;;;;;;3.10;1.72;;;;;;;9.77;54.03;100058.42;1771621;80;27081;-69
2021/04/03 10:53:13;;;;;;;2.80;1.70;;;;;;;9.94;51.30;100061.52;1774353;79;21194;-71
2021/04/03 10:55:39;;;;;;;3.73;1.77;;;;;;;10.28;50.22;100060.74;1760499;80;21604;-70
2021/04/03 10:58:05;;;;;;;3.50;1.60;;;;;;;10.52;49.58;100054.80;1774611;80;26726;-70
2021/04/03 11:00:31;;;;;;;4.17;1.57;;;;;;;10.60;46.85;100060.61;1775720;79;21358;-71
2021/04/03 11:02:57;;;;;;;3.72;1.70;;;;;;;10.77;47.02;100053.59;1776574;80;27542;-69
2021/04/03 11:05:23;;;;;;;4.12;1.95;;;;;;;10.80;46.53;100049.78;1776986;77;26498;-71
2021/04/03 11:07:50;;;;;;;4.40;2.15;;;;;;;10.73;45.76;100064.94;1802464;77;21124;-69
2021/04/03 11:10:16;;;;;;;4.80;1.90;;;;;;;10.55;45.72;100054.96;1821551;77;21188;-69
2021/04/03 11:12:41;;;;;;;4.60;1.82;;;;;;;10.47;43.77;100056.25;1810831;77;21523;-67
2021/04/03 11:15:09;;;;;;;4.35;1.70;;;;;;;10.35;44.05;100053.89;1808407;77;27044;-67
2021/04/03 11:17:35;;;;;;;3.83;1.77;;;;;;;10.52;44.68;100050.03;1812709;77;21567;-68
2021/04/03 11:20:02;;;;;;;3.77;1.80;;;;;;;10.47;43.74;100049.18;1810953;77;28395;-68
2021/04/03 11:22:28;;;;;;;3.52;1.70;;;;;;;10.56;43.52;100044.74;1805201;77;21168;-69
2021/04/03 11:24:54;;;;;;;3.95;1.60;;;;;;;10.69;43.02;100050.42;1826385;77;21233;-70
2021/04/03 11:27:20;;;;;;;5.97;1.70;;;;;;;10.84;42.33;100047.98;1817684;77;27004;-68
2021/04/03 11:29:46;;;;;;;7.33;1.70;;;;;;;10.84;41.47;100040.55;1803376;77;21210;-69
2021/04/03 11:32:13;;;;;;;3.50;1.75;;;;;;;10.93;42.25;100032.98;1820113;77;21578;-69
2021/04/03 11:34:39;;;;;;;3.22;1.62;;;;;;;11.12;43.01;100035.35;1819082;77;21250;-70
2021/04/03 11:37:05;;;;;;;2.72;1.30;;;;;;;11.14;42.74;100044.44;1812858;77;21212;-70
2021/04/03 11:39:31;;;;;;;2.85;1.17;;;;;;;11.24;41.56;100040.32;1816706;77;21225;-67
2021/04/03 11:41:57;;;;;;;2.30;1.20;;;;;;;10.95;39.52;100046.86;1807590;77;21317;-68